Time;durP1;ratioP1;P1;durP2;ratioP2;P2;SDS_P1;SDS_P2;PMS_P1;PMS_P2;Temp;Humidity;BMP_temperature;BMP_pressure;BME280_temperature;BME280_humidity;BME280_pressure;Samples;Min_cycle;Max_cycle;Signal;HPM_P1;HPM_P2
2022/01/26 00:00:03;;;;;;;13.8;9;;;;;;;;;;;;;
2022/01/26 00:07:11;;;;;;;12.3;7.7;;;;;;;;;;;;;
2022/01/26 00:09:39;;;;;;;9.6;6.7;;;;;;;;;;;;;
2022/01/26 00:12:09;;;;;;;8.8;5.8;;;;;;;;;;;;;
2022/01/26 00:14:34;;;;;;;8.5;5.4;;;;;;;;;;;;;
2022/01/26 00:17:00;;;;;;;6.9;4.5;;;;;;;;;;;;;
2022/01/26 00:19:43;;;;;;;13.4;7.2;;;;;;;;;;;;;
2022/01/26 00:21:55;;;;;;;25.2;11.7;;;;;;;;;;;;;
2022/01/26 00:27:03;;;;;;;9.2;5.9;;;;;;;;;;;;;
2022/01/26 00:29:14;;;;;;;13.9;7.8;;;;;;;;;;;;;
2022/01/26 00:38:49;;;;;;;13.5;8.6;;;;;;;;;;;;;
2022/01/26 00:41:17;;;;;;;9.7;6.6;;;;;;;;;;;;;
2022/01/26 00:43:42;;;;;;;10.5;6.3;;;;;;;;;;;;;
2022/01/26 00:46:07;;;;;;;8.9;5.2;;;;;;;;;;;;;
2022/01/26 00:48:33;;;;;;;9.3;6;;;;;;;;;;;;;
2022/01/26 00:51:00;;;;;;;8.7;5.2;;;;;;;;;;;;;
2022/01/26 00:53:26;;;;;;;7.5;4.8;;;;;;;;;;;;;
2022/01/26 00:55:48;;;;;;;6.5;4.8;;;;;;;;;;;;;
2022/01/26 00:58:13;;;;;;;7.8;4.9;;;;;;;;;;;;;
2022/01/26 01:00:38;;;;;;;6.8;4.1;;;;;;;;;;;;;
2022/01/26 01:03:03;;;;;;;6.3;4.3;;;;;;;;;;;;;
2022/01/26 01:05:30;;;;;;;8.4;5;;;;;;;;;;;;;
2022/01/26 01:08:00;;;;;;;6.4;4.6;;;;;;;;;;;;;
2022/01/26 01:10:23;;;;;;;6;4.5;;;;;;;;;;;;;
2022/01/26 01:12:44;;;;;;;4.2;3.7;;;;;;;;;;;;;
2022/01/26 01:15:09;;;;;;;5.2;3.7;;;;;;;;;;;;;
2022/01/26 01:17:39;;;;;;;5.6;3.9;;;;;;;;;;;;;
2022/01/26 01:20:23;;;;;;;5.3;3.8;;;;;;;;;;;;;
2022/01/26 01:22:43;;;;;;;5.4;3.9;;;;;;;;;;;;;
2022/01/26 01:25:24;;;;;;;5.5;3.6;;;;;;;;;;;;;
2022/01/26 01:28:10;;;;;;;4.9;3.4;;;;;;;;;;;;;
2022/01/26 01:29:43;;;;;;;5.9;3.6;;;;;;;;;;;;;
2022/01/26 01:32:13;;;;;;;4.3;3.2;;;;;;;;;;;;;
2022/01/26 01:34:36;;;;;;;6;3.5;;;;;;;;;;;;;
2022/01/26 01:37:01;;;;;;;4.2;3.1;;;;;;;;;;;;;
2022/01/26 01:39:20;;;;;;;3.7;2.8;;;;;;;;;;;;;
2022/01/26 01:41:45;;;;;;;5.5;3.6;;;;;;;;;;;;;
2022/01/26 01:44:11;;;;;;;4.6;3.7;;;;;;;;;;;;;
2022/01/26 01:46:37;;;;;;;4.9;3.4;;;;;;;;;;;;;
2022/01/26 01:49:01;;;;;;;4;2.8;;;;;;;;;;;;;
2022/01/26 01:51:31;;;;;;;4.5;3.3;;;;;;;;;;;;;
2022/01/26 01:53:51;;;;;;;4.2;3.3;;;;;;;;;;;;;
2022/01/26 01:56:20;;;;;;;4.4;3;;;;;;;;;;;;;
2022/01/26 01:58:42;;;;;;;3.8;2.6;;;;;;;;;;;;;
2022/01/26 02:01:07;;;;;;;3.2;2.2;;;;;;;;;;;;;
2022/01/26 02:03:32;;;;;;;3.1;2.5;;;;;;;;;;;;;
2022/01/26 02:05:57;;;;;;;3.2;2.6;;;;;;;;;;;;;
2022/01/26 02:08:22;;;;;;;4.6;2.8;;;;;;;;;;;;;
2022/01/26 02:10:48;;;;;;;3.6;2.7;;;;;;;;;;;;;
2022/01/26 02:13:19;;;;;;;4;2.8;;;;;;;;;;;;;
2022/01/26 02:15:45;;;;;;;3.6;2.5;;;;;;;;;;;;;
2022/01/26 02:18:25;;;;;;;3.6;2.7;;;;;;;;;;;;;
2022/01/26 02:20:48;;;;;;;3.8;2.6;;;;;;;;;;;;;
2022/01/26 02:49:47;;;;;;;4.9;2.8;;;;;;;;;;;;;
2022/01/26 02:52:13;;;;;;;4.7;3.4;;;;;;;;;;;;;
2022/01/26 02:57:02;;;;;;;4;2.8;;;;;;;;;;;;;
2022/01/26 02:59:34;;;;;;;4.8;2.9;;;;;;;;;;;;;
2022/01/26 03:01:49;;;;;;;6.4;3.8;;;;;;;;;;;;;
2022/01/26 03:04:10;;;;;;;5.3;3.1;;;;;;;;;;;;;
2022/01/26 03:06:36;;;;;;;5.4;3.2;;;;;;;;;;;;;
2022/01/26 03:09:00;;;;;;;4.3;3.1;;;;;;;;;;;;;
2022/01/26 03:11:21;;;;;;;4.1;2.9;;;;;;;;;;;;;
2022/01/26 03:13:51;;;;;;;3.7;2.4;;;;;;;;;;;;;
2022/01/26 03:16:15;;;;;;;5.4;3.1;;;;;;;;;;;;;
2022/01/26 03:18:52;;;;;;;6.5;3.6;;;;;;;;;;;;;
2022/01/26 03:21:05;;;;;;;6.9;3.6;;;;;;;;;;;;;
2022/01/26 03:28:22;;;;;;;4.9;2.8;;;;;;;;;;;;;
2022/01/26 03:31:12;;;;;;;6.3;3.7;;;;;;;;;;;;;
2022/01/26 03:33:24;;;;;;;11.8;9.9;;;;;;;;;;;;;
2022/01/26 03:35:42;;;;;;;10;8;;;;;;;;;;;;;
2022/01/26 03:37:59;;;;;;;9;6.1;;;;;;;;;;;;;
2022/01/26 03:40:31;;;;;;;6.9;4.8;;;;;;;;;;;;;
2022/01/26 03:42:50;;;;;;;7.4;5;;;;;;;;;;;;;
2022/01/26 03:45:16;;;;;;;8.1;4.6;;;;;;;;;;;;;
2022/01/26 03:47:41;;;;;;;6.1;4.5;;;;;;;;;;;;;
2022/01/26 03:50:08;;;;;;;5.8;3.4;;;;;;;;;;;;;
2022/01/26 03:52:33;;;;;;;5.6;3.8;;;;;;;;;;;;;
2022/01/26 03:54:58;;;;;;;9.1;7.8;;;;;;;;;;;;;
2022/01/26 03:57:23;;;;;;;6.2;4.5;;;;;;;;;;;;;
2022/01/26 03:59:49;;;;;;;7;3.9;;;;;;;;;;;;;
2022/01/26 04:02:30;;;;;;;5.2;2.7;;;;;;;-0.65;81.52734;948.2048;;;;
2022/01/26 04:05:00;;;;;;;2.6;2.1;;;;;;;-0.8;83.44336;948.3134;;;;
2022/01/26 04:07:20;;;;;;;2.1;1.6;;;;;;;-0.83;84.46094;948.3502;;;;
2022/01/26 04:09:48;;;;;;;3.5;1.9;;;;;;;-1.16;83.22754;948.3766;;;;
2022/01/26 04:12:13;;;;;;;2.2;1.8;;;;;;;-1.27;83.51465;948.3911;;;;
2022/01/26 04:14:43;;;;;;;2.3;2;;;;;;;-1.27;83.18359;948.4358;;;;
2022/01/26 04:17:08;;;;;;;2.7;1.9;;;;;;;-1.52;84.22266;948.4478;;;;
2022/01/26 04:19:39;;;;;;;2.7;2;;;;;;;-1.57;84.12305;948.5528;;;;
2022/01/26 04:22:13;;;;;;;2.4;1.7;;;;;;;-1.61;85.15723;948.5903;;;;
2022/01/26 04:24:32;;;;;;;4;1.9;;;;;;;-1.56;85.14453;948.5058;;;;
2022/01/26 04:26:57;;;;;;;2.5;1.9;;;;;;;-1.59;85.34961;948.5989;;;;
2022/01/26 04:29:22;;;;;;;2.6;1.9;;;;;;;-1.9;87.42773;948.6152;;;;
2022/01/26 04:31:42;;;;;;;2.6;1.8;;;;;;;-1.92;88.36621;948.5959;;;;
2022/01/26 04:34:11;;;;;;;3.1;2.2;;;;;;;-1.74;88.26074;948.5818;;;;
2022/01/26 04:36:41;;;;;;;2.6;2.2;;;;;;;-1.89;88.33691;948.7132;;;;
2022/01/26 04:39:06;;;;;;;5.2;3.6;;;;;;;-2.14;89.51563;948.6006;;;;
2022/01/26 04:41:33;;;;;;;6;3.6;;;;;;;-2.17;90.0752;948.692;;;;
2022/01/26 04:43:56;;;;;;;4.6;3.3;;;;;;;-1.99;89.78125;948.7391;;;;
2022/01/26 04:46:17;;;;;;;4.7;3.4;;;;;;;-1.9;89.42383;948.7219;;;;
2022/01/26 04:48:44;;;;;;;6.3;3.1;;;;;;;-1.83;88.44141;948.7957;;;;
2022/01/26 04:51:09;;;;;;;4.6;3.2;;;;;;;-1.76;87.52441;948.7172;;;;
2022/01/26 04:53:34;;;;;;;6;4.1;;;;;;;-1.59;87.6582;948.7572;;;;
2022/01/26 04:56:00;;;;;;;6.9;4.2;;;;;;;-1.69;87.85938;948.7369;;;;
2022/01/26 04:58:26;;;;;;;6;4.4;;;;;;;-1.62;87.88574;948.7317;;;;
2022/01/26 05:00:51;;;;;;;6;4.1;;;;;;;-1.77;88.19922;948.7195;;;;
2022/01/26 05:03:18;;;;;;;6.7;4.3;;;;;;;-1.67;87.9541;948.7743;;;;
2022/01/26 05:05:43;;;;;;;7.4;4.8;;;;;;;-1.66;87.56543;948.7668;;;;
2022/01/26 05:08:13;;;;;;;6.7;4.7;;;;;;;-1.62;86.94238;948.8306;;;;
2022/01/26 05:10:43;;;;;;;6.7;5.1;;;;;;;-1.65;86.92578;948.8897;;;;
2022/01/26 05:13:06;;;;;;;6.8;5.1;;;;;;;-1.48;86.11719;948.8248;;;;
2022/01/26 05:15:36;;;;;;;8.2;5.2;;;;;;;-1.5;86.21191;948.9095;;;;
2022/01/26 05:18:01;;;;;;;7.8;5.5;;;;;;;-1.57;86.1543;948.8512;;;;
2022/01/26 05:20:32;;;;;;;10.7;6;;;;;;;-1.7;86.87012;948.9045;;;;
2022/01/26 05:22:57;;;;;;;9.3;6.1;;;;;;;-1.67;86.77539;949.0072;;;;
2022/01/26 05:25:23;;;;;;;10;6.7;;;;;;;-1.85;87.23926;948.9434;;;;
2022/01/26 05:27:49;;;;;;;10.5;6.6;;;;;;;-1.97;88.04492;949.0173;;;;
2022/01/26 05:30:17;;;;;;;13.9;8.6;;;;;;;-1.89;87.75098;949.0591;;;;
2022/01/26 05:32:44;;;;;;;15.8;9.2;;;;;;;-1.68;86.8623;949.048;;;;
2022/01/26 05:35:09;;;;;;;12.6;7.9;;;;;;;-1.81;86.5791;949.0397;;;;
2022/01/26 05:37:36;;;;;;;12;7.9;;;;;;;-1.85;87.35059;949.0097;;;;
2022/01/26 05:40:02;;;;;;;12.2;8.2;;;;;;;-2.05;87.60645;949.0064;;;;
2022/01/26 05:42:28;;;;;;;9.2;6.5;;;;;;;-2;87.35156;948.86;;;;
2022/01/26 05:44:59;;;;;;;11.6;7.9;;;;;;;-2.08;87.60059;948.973;;;;
2022/01/26 05:47:20;;;;;;;11.4;8.5;;;;;;;-2.06;88.38281;949.0013;;;;
2022/01/26 05:49:46;;;;;;;12.7;9.5;;;;;;;-2.06;87.79492;949.0288;;;;
2022/01/26 05:52:11;;;;;;;9.8;8.1;;;;;;;-1.98;88.35547;948.9936;;;;
2022/01/26 05:54:36;;;;;;;7.5;6;;;;;;;-1.87;87.91016;949.0253;;;;
2022/01/26 05:57:02;;;;;;;7.9;6.2;;;;;;;-1.87;87.38867;949.0059;;;;
2022/01/26 05:59:28;;;;;;;5;4.4;;;;;;;-1.91;88.04688;949.0201;;;;
2022/01/26 06:01:53;;;;;;;4.7;3.7;;;;;;;-1.97;89.00977;948.9568;;;;
2022/01/26 06:04:18;;;;;;;7.4;5.5;;;;;;;-2.04;88.7168;949.0389;;;;
2022/01/26 06:06:46;;;;;;;6;5.2;;;;;;;-2.36;89.80176;949.0378;;;;
2022/01/26 06:09:11;;;;;;;6;4.9;;;;;;;-2.16;89.16895;949.0366;;;;
2022/01/26 06:11:39;;;;;;;7;5.8;;;;;;;-2.02;88.23242;949.0611;;;;
2022/01/26 06:14:04;;;;;;;29;18.8;;;;;;;-2.04;88.84961;949.0555;;;;
2022/01/26 06:16:31;;;;;;;15.7;9.9;;;;;;;-1.91;88.08203;948.9581;;;;
2022/01/26 06:18:56;;;;;;;14.4;10.3;;;;;;;-1.86;87.52441;948.9968;;;;
2022/01/26 06:21:22;;;;;;;26.9;17.3;;;;;;;-1.92;87.31348;949.0251;;;;
2022/01/26 06:23:47;;;;;;;24.5;16.4;;;;;;;-1.86;86.7832;949.0289;;;;
2022/01/26 06:26:13;;;;;;;19.5;13.2;;;;;;;-1.87;86.90137;949.0491;;;;
2022/01/26 06:28:39;;;;;;;26.4;15.1;;;;;;;-1.97;86.98047;949.0351;;;;
2022/01/26 06:31:09;;;;;;;25;13.5;;;;;;;-1.96;87.14844;949.0545;;;;
2022/01/26 06:33:29;;;;;;;28.8;15.9;;;;;;;-1.97;86.84766;949.1806;;;;
2022/01/26 06:35:57;;;;;;;18.9;13.1;;;;;;;-2.01;86.05273;949.1545;;;;
2022/01/26 06:38:20;;;;;;;15.3;9.9;;;;;;;-2.08;85.55176;949.173;;;;
2022/01/26 06:40:45;;;;;;;16.5;10.3;;;;;;;-2.03;85.4502;949.1855;;;;
2022/01/26 06:43:14;;;;;;;18;11.6;;;;;;;-1.99;85.46875;949.2087;;;;
2022/01/26 06:45:42;;;;;;;23.1;13.5;;;;;;;-2.05;85.76855;949.2668;;;;
2022/01/26 06:50:27;;;;;;;14.1;8.6;;;;;;;-1.98;85.82324;949.291;;;;
2022/01/26 06:52:52;;;;;;;13.7;8.8;;;;;;;-2.02;86.91406;949.2656;;;;
2022/01/26 06:55:19;;;;;;;16.2;10.6;;;;;;;-2.03;86.79004;949.1749;;;;
2022/01/26 06:57:44;;;;;;;14.9;9.5;;;;;;;-1.97;86.70313;949.2353;;;;
2022/01/26 07:00:11;;;;;;;10.7;7;;;;;;;-2.11;86.88574;949.2036;;;;
2022/01/26 07:02:36;;;;;;;6.4;4.7;;;;;;;-2.19;87.76855;949.2634;;;;
2022/01/26 07:05:02;;;;;;;14.8;10;;;;;;;-2.07;88.10156;949.2883;;;;
2022/01/26 07:07:27;;;;;;;21.6;13.5;;;;;;;-2.08;87.40137;949.286;;;;
2022/01/26 07:09:52;;;;;;;41.7;28.6;;;;;;;-2.11;87.26074;949.2844;;;;
2022/01/26 07:12:17;;;;;;;56.1;37.5;;;;;;;-2.01;87.28516;949.3166;;;;
2022/01/26 07:19:53;;;;;;;13.4;9.2;;;;;;;-1.98;86.60156;949.3912;;;;
2022/01/26 07:21:59;;;;;;;16.8;11.9;;;;;;;-1.84;86.40723;949.3538;;;;
2022/01/26 07:24:24;;;;;;;17.3;12.4;;;;;;;-1.8;85.54199;949.4314;;;;
2022/01/26 07:26:54;;;;;;;18.5;11.4;;;;;;;-1.79;85.17676;949.3869;;;;
2022/01/26 07:29:21;;;;;;;16.9;9.1;;;;;;;-2;85.48926;949.3536;;;;
2022/01/26 07:31:42;;;;;;;11.1;7.8;;;;;;;-1.83;86.56641;949.4127;;;;
2022/01/26 07:34:08;;;;;;;12.5;8.6;;;;;;;-1.01;87.73633;949.4404;;;;
2022/01/26 07:36:33;;;;;;;13.7;9.3;;;;;;;-0.19;81.38086;949.4125;;;;
2022/01/26 07:39:06;;;;;;;12.9;9;;;;;;;0.76;74.41016;949.4186;;;;
2022/01/26 07:41:24;;;;;;;10.1;7;;;;;;;1.62;71.73438;949.3922;;;;
2022/01/26 07:43:51;;;;;;;8.2;6.5;;;;;;;2.2;68.67578;949.327;;;;
2022/01/26 07:46:17;;;;;;;11;7.5;;;;;;;1.9;69.89063;949.3812;;;;
2022/01/26 07:48:43;;;;;;;11.6;7.7;;;;;;;1.98;69.64648;949.4596;;;;
2022/01/26 07:51:09;;;;;;;10.2;7;;;;;;;2.09;68.625;949.3949;;;;
2022/01/26 07:53:34;;;;;;;10.8;6.4;;;;;;;1.97;70.49512;949.4257;;;;
2022/01/26 07:55:59;;;;;;;9.9;6.6;;;;;;;3.58;65.79688;949.337;;;;
2022/01/26 07:58:26;;;;;;;11.8;7.6;;;;;;;3.95;62.69629;949.4236;;;;
2022/01/26 08:00:52;;;;;;;21.2;11.5;;;;;;;4.09;61.34277;949.4852;;;;
2022/01/26 08:03:19;;;;;;;27.4;14.3;;;;;;;2.88;64.81348;949.4325;;;;
2022/01/26 08:05:43;;;;;;;18.8;10.5;;;;;;;2.63;66.83887;949.4565;;;;
2022/01/26 08:08:08;;;;;;;16.2;9.6;;;;;;;3.81;62.5498;949.4877;;;;
2022/01/26 08:10:34;;;;;;;16.5;10;;;;;;;3.59;62.61914;949.4415;;;;
2022/01/26 08:13:01;;;;;;;15.3;9;;;;;;;3.17;66.52051;949.4766;;;;
2022/01/26 08:15:26;;;;;;;12.2;8.1;;;;;;;3.57;64.33594;949.4675;;;;
2022/01/26 08:17:53;;;;;;;12.8;8.5;;;;;;;4.18;60.625;949.4606;;;;
2022/01/26 08:20:18;;;;;;;12;8.2;;;;;;;4.41;60.50195;949.4219;;;;
2022/01/26 08:22:45;;;;;;;5.6;4.1;;;;;;;4.73;58.81055;949.336;;;;
2022/01/26 08:25:11;;;;;;;5.7;4;;;;;;;5.75;57.12207;949.3579;;;;
2022/01/26 08:27:41;;;;;;;6.1;3.4;;;;;;;5.48;56.47754;949.3195;;;;
2022/01/26 08:30:06;;;;;;;3.3;2.7;;;;;;;5.15;57.49512;949.3067;;;;
2022/01/26 08:32:27;;;;;;;2.4;2.1;;;;;;;6.11;54.04004;949.2391;;;;
2022/01/26 08:34:54;;;;;;;2.8;2.4;;;;;;;5.9;54.36426;949.1323;;;;
2022/01/26 08:37:19;;;;;;;3.9;3.5;;;;;;;4.73;57.44922;949.2299;;;;
2022/01/26 08:39:44;;;;;;;4.6;3.6;;;;;;;5.92;55.74414;949.144;;;;
2022/01/26 08:42:09;;;;;;;6.5;4.3;;;;;;;6.95;51.47461;949.0881;;;;
2022/01/26 08:44:35;;;;;;;5.5;3.9;;;;;;;7.98;49.21387;948.971;;;;
2022/01/26 08:47:00;;;;;;;5.5;4.1;;;;;;;9.3;46.26855;948.9777;;;;
2022/01/26 08:49:28;;;;;;;4.1;3.4;;;;;;;9.08;47.08691;948.9593;;;;
2022/01/26 08:51:53;;;;;;;4.3;3;;;;;;;10.86;42.76855;948.8365;;;;
2022/01/26 08:54:22;;;;;;;5.2;2.9;;;;;;;9.07;44.90137;948.8961;;;;
2022/01/26 08:56:44;;;;;;;4.2;3.4;;;;;;;6.11;52.98926;948.978;;;;
2022/01/26 08:59:10;;;;;;;4.2;3.1;;;;;;;6.3;54.70996;948.9707;;;;
2022/01/26 09:01:37;;;;;;;5.3;3.6;;;;;;;8.64;48.5166;948.91;;;;
2022/01/26 09:04:02;;;;;;;5.9;3.7;;;;;;;9.82;45.28711;948.9553;;;;
2022/01/26 09:06:32;;;;;;;5.4;3.8;;;;;;;10.38;43.34863;948.8748;;;;
2022/01/26 09:09:04;;;;;;;6.5;4.6;;;;;;;6.44;51.54785;948.9537;;;;
2022/01/26 09:11:24;;;;;;;6;4.2;;;;;;;5.95;55.01367;948.9131;;;;
2022/01/26 09:13:57;;;;;;;6.3;4.3;;;;;;;5.62;57.00391;948.9889;;;;
2022/01/26 09:16:19;;;;;;;6.3;4.7;;;;;;;3.84;61.90234;949.051;;;;
2022/01/26 09:18:51;;;;;;;5.4;4.2;;;;;;;2.96;65.07324;949.0299;;;;
2022/01/26 09:21:14;;;;;;;5;3.8;;;;;;;2.41;68.62988;949.0891;;;;
2022/01/26 09:23:40;;;;;;;4.8;3.8;;;;;;;2.22;69.71875;949.0167;;;;
2022/01/26 09:26:06;;;;;;;6;4.4;;;;;;;2.14;70.9707;949.0133;;;;
2022/01/26 09:28:34;;;;;;;6.7;4.8;;;;;;;2.26;70.92383;949.0073;;;;
2022/01/26 09:30:59;;;;;;;6.9;4.5;;;;;;;2.34;70.43359;948.9514;;;;
2022/01/26 09:33:26;;;;;;;6.4;3.8;;;;;;;2.3;71.10938;948.89;;;;
2022/01/26 09:35:51;;;;;;;5.5;4;;;;;;;1.99;71.68457;948.9431;;;;
2022/01/26 09:38:18;;;;;;;7.7;5;;;;;;;2.16;72.0166;948.9242;;;;
2022/01/26 09:40:44;;;;;;;5;3.7;;;;;;;2.18;71.12305;948.9229;;;;
2022/01/26 09:43:09;;;;;;;4.4;3.4;;;;;;;2.49;70.57031;948.8817;;;;
2022/01/26 09:45:36;;;;;;;4.1;3;;;;;;;2.52;70.27148;948.8628;;;;
2022/01/26 09:48:00;;;;;;;3.9;2.7;;;;;;;2.79;70.27148;948.8844;;;;
2022/01/26 09:50:25;;;;;;;4;2.7;;;;;;;2.68;69.78418;948.8448;;;;
2022/01/26 09:52:54;;;;;;;4.7;3.1;;;;;;;2.84;68.89063;948.8281;;;;
2022/01/26 09:55:17;;;;;;;4.9;3.3;;;;;;;3.03;68.80859;948.7852;;;;
2022/01/26 09:57:44;;;;;;;4.8;3.1;;;;;;;3.22;68.99609;948.7562;;;;
2022/01/26 10:00:10;;;;;;;4.5;2.7;;;;;;;3.14;67.37891;948.7342;;;;
2022/01/26 10:02:35;;;;;;;3.5;2.4;;;;;;;3.37;67.79785;948.6879;;;;
2022/01/26 10:05:04;;;;;;;3;2;;;;;;;3.64;67.35645;948.6923;;;;
2022/01/26 10:07:29;;;;;;;2.6;2.2;;;;;;;3.7;67.01953;948.5901;;;;
2022/01/26 10:10:00;;;;;;;6.2;2.1;;;;;;;3.84;66.5332;948.7242;;;;
2022/01/26 10:17:24;;;;;;;4.3;2.3;;;;;;;4.15;64.96289;948.6821;;;;
2022/01/26 10:19:33;;;;;;;3.1;2.3;;;;;;;3.99;64.33105;948.7073;;;;
2022/01/26 10:21:57;;;;;;;3.1;2.2;;;;;;;4.2;64.51953;948.6671;;;;
2022/01/26 10:24:28;;;;;;;7.5;2.6;;;;;;;4.28;64.27441;948.6007;;;;
2022/01/26 10:26:55;;;;;;;3.2;2.4;;;;;;;4.12;62.78809;948.5853;;;;
2022/01/26 10:29:20;;;;;;;4.1;2.7;;;;;;;4.3;64.34473;948.533;;;;
2022/01/26 10:31:45;;;;;;;10.4;3.2;;;;;;;4.51;63.82617;948.5255;;;;
2022/01/26 10:34:12;;;;;;;14.4;4;;;;;;;4.68;63.26465;948.5;;;;
2022/01/26 10:36:37;;;;;;;9.8;3;;;;;;;4.68;62.29492;948.4478;;;;
2022/01/26 10:39:03;;;;;;;4;2.1;;;;;;;4.76;60.72949;948.3898;;;;
2022/01/26 10:41:28;;;;;;;6.5;2.7;;;;;;;5.01;60.96777;948.3139;;;;
2022/01/26 10:43:57;;;;;;;4.1;2.4;;;;;;;4.97;59.7793;948.2518;;;;
2022/01/26 10:46:20;;;;;;;12.8;3.3;;;;;;;5.14;60.23242;948.17;;;;
2022/01/26 10:49:04;;;;;;;12.7;3;;;;;;;5.33;58.9502;948.2088;;;;
2022/01/26 10:51:33;;;;;;;5.1;1.8;;;;;;;5.44;57.92773;948.2101;;;;
2022/01/26 10:53:40;;;;;;;9;2.3;;;;;;;5.55;58.39355;948.1149;;;;
2022/01/26 10:56:00;;;;;;;5.4;2.2;;;;;;;5.6;57.44043;948.0922;;;;
2022/01/26 10:58:26;;;;;;;13.8;3.4;;;;;;;5.72;57.49121;948.1493;;;;
2022/01/26 11:00:52;;;;;;;3.9;2.3;;;;;;;5.88;56.59668;948.1459;;;;
2022/01/26 11:03:19;;;;;;;7.8;2.8;;;;;;;5.88;58.08789;948.1049;;;;
2022/01/26 11:05:45;;;;;;;2.5;1.6;;;;;;;6.08;57.78711;948.0294;;;;
2022/01/26 11:08:10;;;;;;;2.3;1.8;;;;;;;6.08;57.22363;948.0359;;;;
2022/01/26 11:10:37;;;;;;;3.3;2.6;;;;;;;6.01;57.91504;947.9864;;;;
2022/01/26 11:13:03;;;;;;;2.3;2;;;;;;;5.93;58.77246;948.0031;;;;
2022/01/26 11:15:31;;;;;;;4.1;2.8;;;;;;;6.08;58.50977;947.9734;;;;
2022/01/26 11:17:56;;;;;;;2.8;2.3;;;;;;;6.17;58.00391;948.0784;;;;
2022/01/26 11:20:29;;;;;;;4.1;2.4;;;;;;;6.18;57.19141;948.0598;;;;
2022/01/26 11:22:47;;;;;;;3.4;2.4;;;;;;;6.25;57.91309;947.9902;;;;
2022/01/26 11:25:13;;;;;;;3.4;2;;;;;;;6.35;58.24316;947.9673;;;;
2022/01/26 11:27:41;;;;;;;3.2;2.1;;;;;;;6.53;57.91699;947.9774;;;;
2022/01/26 17:21:05;;;;;;;32.1;17;;;;;;;4.13;61.50781;948.3983;;;;
2022/01/26 17:25:38;;;;;;;31.8;23.4;;;;;;;3.71;63.47949;948.2448;;;;
2022/01/26 18:07:08;;;;;;;16.2;10.4;;;;;;;2.76;66.65723;948.6783;;;;
2022/01/26 18:17:50;;;;;;;15.8;10.2;;;;;;;2.61;67.39648;948.5214;;;;
2022/01/26 18:32:18;;;;;;;26.5;19.7;;;;;;;1.95;70.28027;948.5168;;;;
2022/01/26 18:40:03;;;;;;;34.7;22.7;;;;;;;2.07;69.62793;948.5287;;;;
2022/01/26 18:49:11;;;;;;;22.9;15.3;;;;;;;2;69.96289;948.485;;;;
2022/01/26 18:49:14;;;;;;;22.2;14.8;;;;;;;2.16;69.48535;948.4051;;;;
2022/01/26 18:51:31;;;;;;;22.4;14.6;;;;;;;2.23;69.1377;948.4553;;;;
2022/01/26 18:53:56;;;;;;;20.5;13.4;;;;;;;2.15;69.12598;948.3989;;;;
2022/01/26 18:56:22;;;;;;;20.7;13.9;;;;;;;2.25;68.66016;948.4897;;;;
2022/01/26 18:58:46;;;;;;;22;13.8;;;;;;;2.32;68.50293;948.5219;;;;
2022/01/26 19:01:14;;;;;;;30.4;20.6;;;;;;;2.37;68.17578;948.5247;;;;
2022/01/26 19:03:39;;;;;;;39.2;24.9;;;;;;;2.21;68.46387;948.534;;;;
2022/01/26 19:06:05;;;;;;;48;30.8;;;;;;;2.19;69.46777;948.5136;;;;
2022/01/26 19:08:31;;;;;;;43.9;28.5;;;;;;;2.45;68.88281;948.5311;;;;
2022/01/26 19:10:58;;;;;;;38.2;25.5;;;;;;;2.31;68.79297;948.6039;;;;
2022/01/26 19:13:27;;;;;;;49;29.9;;;;;;;2.31;69.21777;948.6548;;;;
2022/01/26 19:15:51;;;;;;;52.4;30.4;;;;;;;2.31;69.46484;948.6369;;;;
2022/01/26 19:18:21;;;;;;;59.3;41.2;;;;;;;2.34;69.2334;948.6125;;;;
2022/01/26 19:20:53;;;;;;;42.4;27.1;;;;;;;2.17;69.46484;948.5345;;;;
2022/01/26 19:23:27;;;;;;;40;25.3;;;;;;;2.01;69.95117;948.5829;;;;
2022/01/26 19:25:36;;;;;;;41.6;25.7;;;;;;;1.59;71.61719;948.5947;;;;
2022/01/26 19:28:04;;;;;;;32.5;20.5;;;;;;;1.45;72.2207;948.541;;;;
2022/01/26 19:33:08;;;;;;;28.1;17.5;;;;;;;1.21;73.88672;948.4969;;;;
2022/01/26 19:41:47;;;;;;;27.6;18.4;;;;;;;1.73;71.74121;948.3334;;;;
2022/01/26 19:45:45;;;;;;;27.5;18.5;;;;;;;1.79;71.13672;948.3831;;;;
2022/01/26 19:50:43;;;;;;;28.6;19;;;;;;;1.35;72.59375;948.3714;;;;
2022/01/26 19:52:12;;;;;;;38.6;26.2;;;;;;;1.03;73.73438;948.3452;;;;
2022/01/26 19:54:35;;;;;;;37.5;26;;;;;;;1.26;73.34863;948.3279;;;;
2022/01/26 19:57:01;;;;;;;28.5;21.3;;;;;;;1.41;72.3252;948.4294;;;;
2022/01/26 19:59:26;;;;;;;31.2;22.5;;;;;;;1.54;71.76465;948.4001;;;;
2022/01/26 20:01:53;;;;;;;39.4;28;;;;;;;1.81;70.80371;948.4172;;;;
2022/01/26 20:04:18;;;;;;;41.4;31.2;;;;;;;1.88;70.61426;948.3815;;;;
2022/01/26 20:06:44;;;;;;;46.6;34.2;;;;;;;1.79;70.51953;948.2964;;;;
2022/01/26 20:09:15;;;;;;;57.2;34.9;;;;;;;1.97;70.41699;948.3576;;;;
2022/01/26 20:11:40;;;;;;;83.8;42.3;;;;;;;1.36;71.98047;948.4238;;;;
2022/01/26 20:14:01;;;;;;;47.1;29.8;;;;;;;1.36;72.5166;948.3752;;;;
2022/01/26 20:16:24;;;;;;;46.1;29.8;;;;;;;1.61;71.24219;948.5234;;;;
2022/01/26 20:18:52;;;;;;;51.5;30.8;;;;;;;1.68;70.64746;948.4456;;;;
2022/01/26 20:21:17;;;;;;;49.9;29.8;;;;;;;1.77;70.01465;948.4814;;;;
2022/01/26 20:23:45;;;;;;;38.4;24.4;;;;;;;1.77;70.75293;948.5467;;;;
2022/01/26 20:26:10;;;;;;;42;24.2;;;;;;;1.75;71.03906;948.5016;;;;
2022/01/26 20:28:38;;;;;;;36.2;23.5;;;;;;;1.72;71.16895;948.476;;;;
2022/01/26 20:31:02;;;;;;;40.5;27;;;;;;;1.73;71.42773;948.3929;;;;
2022/01/26 20:33:27;;;;;;;32.5;21.9;;;;;;;1.58;71.35742;948.4525;;;;
2022/01/26 20:35:52;;;;;;;37.3;24.4;;;;;;;1.87;70.72461;948.4478;;;;
2022/01/26 20:38:19;;;;;;;35.7;22.5;;;;;;;1.78;71.07813;948.4403;;;;
2022/01/26 20:40:44;;;;;;;30.4;20.2;;;;;;;1.82;70.61523;948.433;;;;
2022/01/26 20:43:10;;;;;;;30.4;20.6;;;;;;;1.52;71.50293;948.3431;;;;
2022/01/26 20:45:35;;;;;;;35.1;23.1;;;;;;;1.26;72.85742;948.2935;;;;
2022/01/26 20:48:02;;;;;;;30.3;20;;;;;;;1.09;73.3291;948.3762;;;;
2022/01/26 20:50:25;;;;;;;33.6;21.9;;;;;;;1.21;73.17188;948.3911;;;;
2022/01/26 20:52:52;;;;;;;39.2;24.3;;;;;;;1.38;72.43066;948.3243;;;;
2022/01/26 20:55:17;;;;;;;41.8;24.9;;;;;;;1.2;72.66895;948.2371;;;;
2022/01/26 20:57:43;;;;;;;37.2;23.6;;;;;;;1.09;73.41797;948.2303;;;;
2022/01/26 21:00:08;;;;;;;35.5;22;;;;;;;1.13;72.80176;948.1713;;;;
2022/01/26 21:02:34;;;;;;;37.1;21.9;;;;;;;1.08;72.82617;948.1886;;;;
2022/01/26 21:04:59;;;;;;;32.1;19.4;;;;;;;0.82;74.1875;948.1336;;;;
2022/01/26 21:07:24;;;;;;;29.2;18.6;;;;;;;0.73;74.79785;948.1189;;;;
2022/01/26 21:09:49;;;;;;;26;16.4;;;;;;;0.77;74.98242;948.2177;;;;
2022/01/26 21:12:14;;;;;;;27.1;17.2;;;;;;;0.98;73.8916;948.1141;;;;
2022/01/26 21:14:42;;;;;;;25.8;16.9;;;;;;;0.68;74.58594;948.2086;;;;
2022/01/26 21:17:08;;;;;;;72.1;32.4;;;;;;;0.45;75.88379;948.1175;;;;
2022/01/26 21:19:34;;;;;;;49.6;25.5;;;;;;;0.5;75.7041;948.127;;;;
2022/01/26 21:21:59;;;;;;;29.9;16.9;;;;;;;0.58;75.30469;948.0508;;;;
2022/01/26 21:24:26;;;;;;;41.9;22.2;;;;;;;0.73;74.91895;948.1077;;;;
2022/01/26 21:26:52;;;;;;;20.1;13.2;;;;;;;0.47;75.66602;948.1141;;;;
2022/01/26 21:29:17;;;;;;;17.9;11.8;;;;;;;0.52;75.72949;948.1204;;;;
2022/01/26 21:31:42;;;;;;;15.9;11.6;;;;;;;0.83;74.92578;948.064;;;;
2022/01/26 21:34:09;;;;;;;20.5;13.5;;;;;;;1.08;73.60742;947.9627;;;;
2022/01/26 21:36:35;;;;;;;27.7;20.5;;;;;;;1.32;73.0918;947.8983;;;;
2022/01/26 21:39:00;;;;;;;18.1;11.6;;;;;;;1.23;72.4834;947.8191;;;;
2022/01/26 21:41:26;;;;;;;22.5;15.8;;;;;;;1.31;72.19629;947.8208;;;;
2022/01/26 21:43:53;;;;;;;19.3;14.1;;;;;;;1.33;72.50195;947.8565;;;;
2022/01/26 21:46:18;;;;;;;19.6;13.3;;;;;;;1.35;72.29297;947.7133;;;;
2022/01/26 21:48:43;;;;;;;18.2;12.4;;;;;;;1.32;72.00781;947.7742;;;;
2022/01/26 21:51:08;;;;;;;22.1;14.5;;;;;;;1.43;71.67773;947.7413;;;;
2022/01/26 21:53:33;;;;;;;25.3;15.9;;;;;;;1.35;72.05859;947.6929;;;;
2022/01/26 21:55:58;;;;;;;25.6;17;;;;;;;0.97;72.02539;947.7054;;;;
2022/01/26 21:58:23;;;;;;;24;16.8;;;;;;;0.49;73.7959;947.6647;;;;
2022/01/26 22:00:48;;;;;;;24.9;15.9;;;;;;;0.81;72.67871;947.6448;;;;
2022/01/26 22:03:15;;;;;;;24.5;15.3;;;;;;;0.75;72.92676;947.6392;;;;
2022/01/26 22:05:40;;;;;;;24.9;15.6;;;;;;;0.61;73.58203;947.5518;;;;
2022/01/26 22:08:07;;;;;;;26.2;15.7;;;;;;;0.61;73.69336;947.7395;;;;
2022/01/26 22:10:31;;;;;;;24.2;15.5;;;;;;;0.76;72.88184;947.6642;;;;
2022/01/26 22:12:59;;;;;;;24.5;15.5;;;;;;;1.05;72.6543;947.6594;;;;
2022/01/26 22:15:24;;;;;;;27.9;17.9;;;;;;;1.08;72.56934;947.6973;;;;
2022/01/26 22:17:54;;;;;;;23.1;14.7;;;;;;;0.89;72.44727;947.6434;;;;
2022/01/26 22:20:23;;;;;;;23.5;15;;;;;;;0.95;72.71387;947.5527;;;;
2022/01/26 22:22:50;;;;;;;25.2;16;;;;;;;0.93;72.60938;947.6096;;;;
2022/01/26 22:25:25;;;;;;;23.7;15.1;;;;;;;0.89;72.72754;947.5622;;;;
2022/01/26 22:27:48;;;;;;;25.6;15.6;;;;;;;0.94;72.44531;947.5988;;;;
2022/01/26 22:30:10;;;;;;;26.5;16.1;;;;;;;0.95;72.33398;947.5464;;;;
2022/01/26 22:32:34;;;;;;;23.8;13.8;;;;;;;1.08;71.80957;947.6268;;;;
2022/01/26 22:35:03;;;;;;;23.6;14.1;;;;;;;0.96;71.94434;947.6631;;;;
2022/01/26 22:37:28;;;;;;;23.2;13.5;;;;;;;1.17;71.82324;947.6642;;;;
2022/01/26 22:39:57;;;;;;;24;14;;;;;;;1.18;72.08398;947.6696;;;;
2022/01/26 22:42:20;;;;;;;23.9;14.7;;;;;;;1.27;71.84082;947.657;;;;
2022/01/26 22:44:46;;;;;;;24.9;14.2;;;;;;;1.04;71.83594;947.6646;;;;
2022/01/26 22:47:11;;;;;;;24.6;13.7;;;;;;;1.23;71.44434;947.7011;;;;
2022/01/26 22:49:36;;;;;;;24.5;14.2;;;;;;;0.93;71.59375;947.6958;;;;
2022/01/26 22:52:02;;;;;;;21.4;13.7;;;;;;;0.63;72.01172;947.7133;;;;
2022/01/26 22:54:27;;;;;;;21.3;13.7;;;;;;;0.52;72.9082;947.7784;;;;
2022/01/26 22:56:52;;;;;;;22.1;13.4;;;;;;;0.53;72.57324;947.88;;;;
2022/01/26 22:59:18;;;;;;;22.4;13.7;;;;;;;0.47;73.43555;947.8791;;;;
2022/01/26 23:04:09;;;;;;;21.7;13.4;;;;;;;0.17;74.02832;948.0131;;;;
2022/01/26 23:06:34;;;;;;;21.3;13.5;;;;;;;0.17;74.57422;947.9269;;;;
2022/01/26 23:08:59;;;;;;;19.3;11.5;;;;;;;0.1;74.61914;947.9656;;;;
2022/01/26 23:11:24;;;;;;;16;10.4;;;;;;;-0.31;74.60254;948.0588;;;;
2022/01/26 23:13:49;;;;;;;16.6;10.6;;;;;;;-0.28;73.32715;948.0256;;;;
2022/01/26 23:16:16;;;;;;;15.8;9.6;;;;;;;-0.32;73.84277;947.9766;;;;
2022/01/26 23:18:41;;;;;;;99.3;35.7;;;;;;;-0.51;75.43555;947.9832;;;;
2022/01/26 23:21:06;;;;;;;191.1;66.8;;;;;;;-0.4;75.36621;947.9679;;;;
2022/01/26 23:23:34;;;;;;;24.9;12.9;;;;;;;-0.77;76.7998;947.9958;;;;
2022/01/26 23:26:08;;;;;;;19.5;11.7;;;;;;;-1.02;78.81055;947.9519;;;;
2022/01/26 23:28:33;;;;;;;18.6;11.4;;;;;;;-1.01;80.06836;947.9037;;;;